Time;durP1;ratioP1;P1;durP2;ratioP2;P2;SDS_P1;SDS_P2;PMS_P1;PMS_P2;Temp;Humidity;BMP_temperature;BMP_pressure;BME280_temperature;BME280_humidity;BME280_pressure;Samples;Min_cycle;Max_cycle;Signal;HPM_P1;HPM_P2
2021/05/24 00:00:17;;;;;;;3.92;3.03;;;;;;;;;;5115532;28;20510;-67
2021/05/24 00:02:44;;;;;;;3.80;3.08;;;;;;;;;;5115512;28;20031;-68
2021/05/24 00:05:29;;;;;;;5.22;3.30;;;;;;;;;;5115304;28;20547;-68
2021/05/24 00:07:56;;;;;;;4.30;2.85;;;;;;;;;;5115236;28;20055;-67
2021/05/24 00:10:23;;;;;;;4.63;3.13;;;;;;;;;;5115184;28;20023;-67
2021/05/24 00:12:50;;;;;;;3.67;3.00;;;;;;;;;;5115322;28;20030;-67
2021/05/24 00:15:18;;;;;;;3.65;2.80;;;;;;;;;;5115106;28;20028;-67
2021/05/24 00:17:44;;;;;;;4.72;3.08;;;;;;;;;;5115025;28;20448;-67
2021/05/24 00:20:10;;;;;;;3.83;2.75;;;;;;;;;;5115109;28;20099;-67
2021/05/24 00:22:36;;;;;;;3.92;3.10;;;;;;;;;;5115361;28;20044;-68
2021/05/24 00:25:03;;;;;;;6.35;3.83;;;;;;;;;;5114854;28;20094;-68
2021/05/24 00:27:29;;;;;;;3.58;2.80;;;;;;;;;;5114911;28;20028;-68
2021/05/24 00:29:56;;;;;;;5.10;3.38;;;;;;;;;;5114819;28;20494;-67
2021/05/24 00:32:22;;;;;;;3.92;3.17;;;;;;;;;;5114674;28;20136;-67
2021/05/24 00:34:48;;;;;;;3.63;3.22;;;;;;;;;;5114830;28;20094;-67
2021/05/24 00:37:14;;;;;;;5.75;3.50;;;;;;;;;;5114156;28;20023;-68
2021/05/24 00:39:40;;;;;;;4.60;3.80;;;;;;;;;;5114614;28;20098;-68
2021/05/24 00:42:06;;;;;;;4.50;3.17;;;;;;;;;;5114675;28;20031;-68
2021/05/24 00:44:32;;;;;;;4.15;3.10;;;;;;;;;;5114636;28;20478;-67
2021/05/24 00:46:59;;;;;;;5.13;3.58;;;;;;;;;;5114533;28;20066;-69
2021/05/24 00:49:28;;;;;;;9.80;3.65;;;;;;;;;;5114450;28;20134;-68
2021/05/24 00:51:55;;;;;;;5.07;3.60;;;;;;;;;;5114426;28;20498;-67
2021/05/24 00:54:22;;;;;;;5.22;3.70;;;;;;;;;;5114523;28;20050;-68
2021/05/24 00:56:49;;;;;;;5.00;3.75;;;;;;;;;;5115264;28;20027;-68
2021/05/24 00:59:15;;;;;;;4.97;3.72;;;;;;;;;;5115718;28;20363;-67
2021/05/24 01:01:42;;;;;;;7.63;3.92;;;;;;;;;;5114531;28;20024;-68
2021/05/24 01:04:08;;;;;;;4.57;3.67;;;;;;;;;;5114325;28;20045;-68
2021/05/24 01:06:34;;;;;;;5.25;3.67;;;;;;;;;;5115133;28;20055;-68
2021/05/24 01:09:00;;;;;;;5.32;3.72;;;;;;;;;;5115807;28;20024;-68
2021/05/24 01:11:26;;;;;;;4.28;3.70;;;;;;;;;;5115513;28;20027;-68
2021/05/24 01:13:52;;;;;;;5.30;3.50;;;;;;;;;;5115552;28;20059;-69
2021/05/24 01:16:18;;;;;;;4.63;3.58;;;;;;;;;;5115251;28;20024;-67
2021/05/24 01:18:44;;;;;;;4.03;3.60;;;;;;;;;;5115372;28;20024;-68
2021/05/24 01:21:11;;;;;;;5.10;3.67;;;;;;;;;;5115218;28;20478;-68
2021/05/24 01:23:41;;;;;;;4.82;4.03;;;;;;;;;;5115234;28;20020;-68
2021/05/24 01:26:08;;;;;;;5.85;3.67;;;;;;;;;;5117579;28;20023;-68
2021/05/24 01:28:34;;;;;;;5.53;3.83;;;;;;;;;;5113906;28;20031;-67
2021/05/24 01:31:00;;;;;;;4.03;3.55;;;;;;;;;;5113852;28;20084;-67
2021/05/24 01:33:26;;;;;;;4.20;3.50;;;;;;;;;;5113732;28;20015;-67
2021/05/24 01:35:53;;;;;;;4.45;3.80;;;;;;;;;;5113679;28;20489;-68
2021/05/24 01:38:19;;;;;;;5.20;3.55;;;;;;;;;;5113560;28;20051;-67
2021/05/24 01:40:47;;;;;;;4.35;3.60;;;;;;;;;;5113562;28;20024;-68
2021/05/24 01:43:13;;;;;;;4.47;3.67;;;;;;;;;;5113616;28;20020;-68
2021/05/24 01:45:40;;;;;;;5.30;3.55;;;;;;;;;;5113373;28;20028;-67
2021/05/24 01:48:06;;;;;;;4.45;3.58;;;;;;;;;;5113380;28;20019;-67
2021/05/24 01:50:32;;;;;;;5.07;3.22;;;;;;;;;;5113369;28;20027;-68
2021/05/24 01:52:58;;;;;;;5.68;3.78;;;;;;;;;;5113335;28;20024;-68
2021/05/24 01:55:25;;;;;;;4.00;3.05;;;;;;;;;;5113324;28;20020;-67
2021/05/24 01:57:53;;;;;;;4.20;3.33;;;;;;;;;;5113308;28;20020;-68
2021/05/24 02:00:21;;;;;;;5.10;3.58;;;;;;;;;;5113046;28;20039;-68
2021/05/24 02:02:48;;;;;;;4.55;3.40;;;;;;;;;;5113192;28;20103;-69
2021/05/24 02:05:14;;;;;;;5.82;3.90;;;;;;;;;;5113193;28;20038;-67
2021/05/24 02:07:41;;;;;;;4.80;3.80;;;;;;;;;;5113072;28;20092;-69
2021/05/24 02:10:09;;;;;;;5.05;3.42;;;;;;;;;;5113004;28;20485;-68
2021/05/24 02:12:36;;;;;;;4.57;3.63;;;;;;;;;;5112952;28;20099;-67
2021/05/24 02:15:02;;;;;;;4.18;3.72;;;;;;;;;;5112944;28;20043;-67
2021/05/24 02:17:28;;;;;;;4.43;3.28;;;;;;;;;;5112952;28;20020;-68
2021/05/24 02:19:55;;;;;;;4.28;3.85;;;;;;;;;;5112863;28;20019;-68
2021/05/24 02:22:21;;;;;;;4.75;3.95;;;;;;;;;;5112904;28;20023;-68
2021/05/24 02:24:47;;;;;;;6.45;4.25;;;;;;;;;;5120101;27;20031;-68
2021/05/24 02:27:13;;;;;;;7.35;4.68;;;;;;;;;;5133430;27;20031;-69
2021/05/24 02:29:40;;;;;;;7.35;4.45;;;;;;;;;;5133225;27;20118;-68
2021/05/24 02:32:07;;;;;;;5.55;4.70;;;;;;;;;;5133312;28;20019;-68
2021/05/24 02:34:33;;;;;;;5.68;4.55;;;;;;;;;;5133341;28;20023;-67
2021/05/24 02:36:59;;;;;;;5.53;4.55;;;;;;;;;;5133418;28;20385;-67
2021/05/24 02:39:25;;;;;;;6.65;5.03;;;;;;;;;;5132739;28;20027;-67
2021/05/24 02:41:52;;;;;;;6.22;4.88;;;;;;;;;;5133273;28;20071;-68
2021/05/24 02:44:18;;;;;;;6.95;4.80;;;;;;;;;;5114785;28;20042;-68
2021/05/24 02:46:44;;;;;;;5.40;4.43;;;;;;;;;;5133444;28;20027;-68
2021/05/24 02:49:10;;;;;;;5.35;4.38;;;;;;;;;;5133071;28;20030;-68
2021/05/24 02:51:37;;;;;;;6.63;4.70;;;;;;;;;;5133229;28;20393;-68
2021/05/24 02:54:03;;;;;;;5.72;4.80;;;;;;;;;;5132994;28;20433;-68
2021/05/24 02:56:29;;;;;;;6.47;5.00;;;;;;;;;;5133140;28;20026;-69
2021/05/24 02:58:56;;;;;;;7.88;4.65;;;;;;;;;;5133071;27;20057;-67
2021/05/24 03:01:24;;;;;;;5.82;4.93;;;;;;;;;;5137140;27;20483;-67
2021/05/24 03:03:54;;;;;;;6.00;4.97;;;;;;;;;;5137199;27;20019;-67
2021/05/24 03:06:20;;;;;;;5.97;5.03;;;;;;;;;;5137332;27;20027;-68
2021/05/24 03:08:46;;;;;;;6.28;4.78;;;;;;;;;;5136768;27;20500;-67
2021/05/24 03:11:12;;;;;;;7.70;5.25;;;;;;;;;;5136965;27;20030;-67
2021/05/24 03:13:38;;;;;;;5.55;4.70;;;;;;;;;;5118468;27;20447;-67
2021/05/24 03:16:04;;;;;;;5.75;4.85;;;;;;;;;;5136949;27;20016;-67
2021/05/24 03:18:30;;;;;;;6.57;5.10;;;;;;;;;;5136913;27;20028;-67
2021/05/24 03:20:56;;;;;;;9.10;4.82;;;;;;;;;;5137050;27;20060;-68
2021/05/24 03:23:23;;;;;;;7.57;4.97;;;;;;;;;;5136844;27;20019;-68
2021/05/24 03:25:49;;;;;;;7.15;4.72;;;;;;;;;;5117262;27;20031;-68
2021/05/24 03:28:15;;;;;;;6.55;5.15;;;;;;;;;;5116057;28;20023;-68
2021/05/24 03:30:41;;;;;;;6.13;4.65;;;;;;;;;;5116115;28;20516;-68
2021/05/24 03:33:07;;;;;;;5.97;4.40;;;;;;;;;;5116148;28;20030;-68
2021/05/24 03:35:33;;;;;;;6.68;4.05;;;;;;;;;;5116260;28;20028;-68
2021/05/24 03:37:59;;;;;;;7.82;4.63;;;;;;;;;;5097472;28;20096;-69
2021/05/24 03:40:26;;;;;;;5.53;4.43;;;;;;;;;;5115942;28;20023;-70
2021/05/24 03:42:52;;;;;;;5.53;4.20;;;;;;;;;;5116110;28;20057;-67
2021/05/24 03:45:22;;;;;;;5.55;4.50;;;;;;;;;;5097451;28;20023;-68
2021/05/24 03:47:49;;;;;;;5.63;4.25;;;;;;;;;;5115794;28;20023;-67
2021/05/24 03:50:15;;;;;;;6.57;4.60;;;;;;;;;;5115695;28;20028;-68
2021/05/24 03:52:41;;;;;;;4.80;4.00;;;;;;;;;;5115538;28;20095;-68
2021/05/24 03:55:08;;;;;;;5.00;3.72;;;;;;;;;;5115486;28;20489;-68
2021/05/24 03:57:34;;;;;;;6.18;4.22;;;;;;;;;;5115530;28;20019;-67
2021/05/24 04:00:00;;;;;;;5.10;3.70;;;;;;;;;;5115662;28;20030;-67
2021/05/24 04:02:26;;;;;;;7.25;4.35;;;;;;;;;;5115480;28;20023;-68
2021/05/24 04:04:53;;;;;;;4.70;3.95;;;;;;;;;;5115767;28;20390;-69
2021/05/24 04:07:23;;;;;;;5.10;4.20;;;;;;;;;;5115172;28;20052;-68
2021/05/24 04:09:49;;;;;;;4.55;4.00;;;;;;;;;;5115541;28;20405;-68
2021/05/24 04:12:15;;;;;;;5.35;4.40;;;;;;;;;;5114064;28;20027;-68
2021/05/24 04:14:42;;;;;;;6.50;4.93;;;;;;;;;;5115288;28;20047;-69
2021/05/24 04:17:10;;;;;;;5.78;4.25;;;;;;;;;;5115455;28;20028;-68
2021/05/24 04:19:37;;;;;;;9.38;4.63;;;;;;;;;;5115075;28;20027;-68
2021/05/24 04:22:03;;;;;;;5.80;4.63;;;;;;;;;;5115324;28;20440;-68
2021/05/24 04:24:29;;;;;;;6.53;4.47;;;;;;;;;;5114994;28;20057;-68
2021/05/24 04:26:55;;;;;;;6.15;4.50;;;;;;;;;;5114970;28;20028;-68
2021/05/24 04:29:21;;;;;;;7.85;4.40;;;;;;;;;;5114942;28;20029;-69
2021/05/24 04:31:47;;;;;;;6.18;4.97;;;;;;;;;;5114897;28;20016;-68
2021/05/24 04:34:13;;;;;;;6.47;4.80;;;;;;;;;;5114967;28;20359;-68
2021/05/24 04:36:39;;;;;;;6.47;4.50;;;;;;;;;;5114792;28;20023;-67
2021/05/24 04:39:05;;;;;;;5.75;4.57;;;;;;;;;;5114819;28;20061;-68
2021/05/24 04:41:32;;;;;;;6.47;4.25;;;;;;;;;;5114772;28;20102;-68
2021/05/24 04:44:09;;;;;;;5.88;4.63;;;;;;;;;;5114733;28;20024;-68
2021/05/24 04:46:35;;;;;;;5.45;4.15;;;;;;;;;;5114732;28;20720;-69
2021/05/24 04:49:01;;;;;;;5.68;4.75;;;;;;;;;;5114415;28;20031;-69
2021/05/24 04:51:28;;;;;;;5.93;4.97;;;;;;;;;;5114541;28;20157;-68
2021/05/24 04:53:54;;;;;;;5.82;5.13;;;;;;;;;;5114843;28;20367;-67
2021/05/24 04:56:20;;;;;;;8.38;5.10;;;;;;;;;;5114398;28;20024;-67
2021/05/24 04:58:46;;;;;;;7.70;5.22;;;;;;;;;;5114419;28;20026;-67
2021/05/24 05:01:12;;;;;;;10.55;5.80;;;;;;;;;;5114327;28;20027;-67
2021/05/24 05:03:38;;;;;;;7.32;5.32;;;;;;;;;;5114216;28;20024;-68
2021/05/24 05:06:04;;;;;;;9.45;6.20;;;;;;;;;;5114197;28;20028;-68
2021/05/24 05:08:30;;;;;;;12.55;6.50;;;;;;;;;;5113969;28;20405;-68
2021/05/24 05:10:56;;;;;;;9.38;5.97;;;;;;;;;;5114220;28;20027;-67
2021/05/24 05:13:22;;;;;;;10.00;7.10;;;;;;;;;;5114150;28;20355;-67
2021/05/24 05:15:48;;;;;;;11.82;6.32;;;;;;;;;;5114074;28;20470;-68
2021/05/24 05:18:14;;;;;;;8.27;6.03;;;;;;;;;;5113928;28;20133;-67
2021/05/24 05:20:41;;;;;;;9.93;5.90;;;;;;;;;;5113939;28;20081;-68
2021/05/24 05:23:07;;;;;;;8.65;5.28;;;;;;;;;;5113670;28;20019;-68
2021/05/24 05:25:33;;;;;;;9.75;6.10;;;;;;;;;;5113769;28;20103;-67
2021/05/24 05:27:59;;;;;;;8.63;5.75;;;;;;;;;;5113791;28;20027;-68
2021/05/24 05:30:25;;;;;;;8.00;5.55;;;;;;;;;;5113656;28;20032;-67
2021/05/24 05:32:51;;;;;;;8.15;6.32;;;;;;;;;;5113630;28;20119;-67
2021/05/24 05:35:19;;;;;;;10.77;6.03;;;;;;;;;;5114049;28;20020;-68
2021/05/24 05:37:48;;;;;;;6.68;5.22;;;;;;;;;;5113643;28;20478;-69
2021/05/24 05:40:17;;;;;;;8.93;6.10;;;;;;;;;;5113843;28;20422;-68
2021/05/24 05:42:43;;;;;;;7.70;5.32;;;;;;;;;;5095648;28;20091;-68
2021/05/24 05:45:10;;;;;;;9.27;6.10;;;;;;;;;;5113485;28;20031;-67
2021/05/24 05:47:36;;;;;;;10.75;5.43;;;;;;;;;;5113321;28;20023;-67
2021/05/24 05:50:03;;;;;;;6.63;5.32;;;;;;;;;;5113292;28;20485;-68
2021/05/24 05:52:29;;;;;;;7.97;5.10;;;;;;;;;;5113433;28;20028;-68
2021/05/24 05:54:55;;;;;;;5.97;4.68;;;;;;;;;;5095056;28;20359;-68
2021/05/24 05:57:21;;;;;;;7.88;4.70;;;;;;;;;;5113324;28;20016;-68
2021/05/24 05:59:47;;;;;;;8.10;4.80;;;;;;;;;;5113300;28;20103;-68
2021/05/24 06:02:13;;;;;;;8.25;5.32;;;;;;;;;;5113080;28;20031;-69
2021/05/24 06:04:39;;;;;;;10.95;5.43;;;;;;;;;;5094928;28;20031;-67
2021/05/24 06:07:05;;;;;;;7.88;4.93;;;;;;;;;;5112915;28;20050;-67
2021/05/24 06:09:32;;;;;;;8.27;5.18;;;;;;;;;;5113015;28;20396;-67
2021/05/24 06:11:58;;;;;;;6.55;4.68;;;;;;;;;;5113045;28;20028;-67
2021/05/24 06:14:24;;;;;;;7.40;4.60;;;;;;;;;;5113006;28;20050;-67
2021/05/24 06:16:50;;;;;;;5.60;4.47;;;;;;;;;;5094654;28;20111;-67
2021/05/24 06:19:16;;;;;;;6.03;4.47;;;;;;;;;;5113168;28;20418;-67
2021/05/24 06:21:42;;;;;;;6.93;4.43;;;;;;;;;;5112934;28;20470;-67
2021/05/24 06:24:09;;;;;;;6.20;4.57;;;;;;;;;;5112770;28;20031;-68
2021/05/24 06:26:36;;;;;;;6.75;4.70;;;;;;;;;;5112885;28;20359;-69
2021/05/24 06:29:02;;;;;;;5.43;4.10;;;;;;;;;;5112779;28;20535;-68
2021/05/24 06:31:28;;;;;;;7.38;4.80;;;;;;;;;;5112771;28;20469;-68
2021/05/24 06:33:54;;;;;;;5.40;4.30;;;;;;;;;;5112240;28;20027;-67
2021/05/24 06:36:21;;;;;;;6.78;4.50;;;;;;;;;;5112830;28;20501;-67
2021/05/24 06:38:47;;;;;;;5.82;4.35;;;;;;;;;;5112878;28;20599;-68
2021/05/24 06:41:13;;;;;;;7.85;4.80;;;;;;;;;;5112780;28;20034;-67
2021/05/24 06:43:39;;;;;;;6.95;4.68;;;;;;;;;;5112659;28;20042;-68
2021/05/24 06:46:05;;;;;;;7.18;4.13;;;;;;;;;;5112556;28;20034;-67
2021/05/24 06:48:32;;;;;;;7.57;4.40;;;;;;;;;;5112683;28;20055;-68
2021/05/24 06:50:58;;;;;;;7.22;4.45;;;;;;;;;;5112834;28;20036;-67
2021/05/24 06:53:24;;;;;;;7.70;4.45;;;;;;;;;;5112591;28;20020;-68
2021/05/24 06:55:50;;;;;;;6.25;4.40;;;;;;;;;;5112576;28;20027;-68
2021/05/24 06:58:16;;;;;;;7.07;5.15;;;;;;;;;;5112590;28;20020;-68
2021/05/24 07:00:42;;;;;;;6.57;4.60;;;;;;;;;;5108353;28;20039;-68
2021/05/24 07:03:09;;;;;;;5.97;4.82;;;;;;;;;;5111385;28;20081;-68
2021/05/24 07:05:35;;;;;;;6.70;4.88;;;;;;;;;;5110662;28;20032;-66
2021/05/24 07:08:01;;;;;;;6.55;4.35;;;;;;;;;;5111206;28;20493;-67
2021/05/24 07:10:27;;;;;;;5.63;4.55;;;;;;;;;;5106377;28;20024;-68
2021/05/24 07:12:53;;;;;;;5.85;4.72;;;;;;;;;;5110834;28;20023;-67
2021/05/24 07:15:19;;;;;;;6.03;4.40;;;;;;;;;;5109268;28;20073;-68
2021/05/24 07:17:45;;;;;;;6.05;4.00;;;;;;;;;;5100248;28;20655;-69
2021/05/24 07:20:12;;;;;;;7.80;4.00;;;;;;;;;;5096621;28;20048;-67
2021/05/24 07:22:38;;;;;;;5.55;4.45;;;;;;;;;;5086537;28;20028;-68
2021/05/24 07:25:05;;;;;;;5.10;4.47;;;;;;;;;;5074202;28;20028;-68
2021/05/24 07:27:31;;;;;;;6.93;4.80;;;;;;;;;;5092047;28;20142;-68
2021/05/24 07:29:57;;;;;;;5.18;3.97;;;;;;;;;;5088842;28;20462;-68
2021/05/24 07:32:23;;;;;;;5.43;3.42;;;;;;;;;;5105625;28;20382;-68
2021/05/24 07:34:50;;;;;;;5.20;3.90;;;;;;;;;;5103620;28;20521;-69
2021/05/24 07:37:16;;;;;;;5.05;3.55;;;;;;;;;;5100526;28;20032;-68
2021/05/24 07:39:42;;;;;;;5.18;3.72;;;;;;;;;;5098382;28;20075;-69
2021/05/24 07:42:09;;;;;;;4.05;3.47;;;;;;;;;;5100581;28;20394;-68
2021/05/24 07:44:35;;;;;;;7.53;3.70;;;;;;;;;;5073512;28;20031;-70
2021/05/24 07:47:02;;;;;;;5.38;3.85;;;;;;;;;;5082485;28;20024;-67
2021/05/24 07:49:29;;;;;;;5.70;3.25;;;;;;;;;;5101888;28;20024;-69
2021/05/24 07:51:55;;;;;;;6.18;3.72;;;;;;;;;;5095402;28;20023;-69
2021/05/24 07:54:21;;;;;;;5.45;3.22;;;;;;;;;;5095109;28;20471;-68
2021/05/24 07:56:48;;;;;;;4.47;2.70;;;;;;;;;;5101339;28;20491;-69
2021/05/24 07:59:14;;;;;;;7.07;3.33;;;;;;;;;;5114818;28;20382;-68
2021/05/24 08:01:40;;;;;;;10.15;2.85;;;;;;;;;;5115023;28;20036;-68
2021/05/24 08:04:06;;;;;;;6.82;2.30;;;;;;;;;;5115465;28;20027;-67
2021/05/24 08:06:32;;;;;;;4.93;2.95;;;;;;;;;;5115467;28;20470;-68
2021/05/24 08:08:58;;;;;;;4.68;2.40;;;;;;;;;;5115220;28;20043;-68
2021/05/24 08:11:25;;;;;;;4.75;2.38;;;;;;;;;;5115313;28;20051;-68
2021/05/24 08:13:53;;;;;;;5.68;2.47;;;;;;;;;;5115178;28;20023;-68
2021/05/24 08:16:19;;;;;;;5.25;2.63;;;;;;;;;;5115356;28;20056;-68
2021/05/24 08:18:45;;;;;;;4.13;2.00;;;;;;;;;;5115251;28;20076;-68
2021/05/24 08:21:12;;;;;;;4.13;2.13;;;;;;;;;;5115178;28;20020;-68
2021/05/24 08:23:38;;;;;;;3.20;2.10;;;;;;;;;;5113623;28;20097;-67
2021/05/24 08:26:04;;;;;;;3.35;2.28;;;;;;;;;;5115117;28;20488;-67
2021/05/24 08:28:31;;;;;;;6.55;2.25;;;;;;;;;;5114810;28;20386;-67
2021/05/24 08:30:58;;;;;;;6.40;2.47;;;;;;;;;;5115011;28;20458;-69
2021/05/24 08:33:24;;;;;;;7.40;2.85;;;;;;;;;;5114941;28;20076;-67
2021/05/24 08:35:50;;;;;;;5.07;2.70;;;;;;;;;;5114960;28;20490;-68
2021/05/24 08:38:17;;;;;;;3.75;2.67;;;;;;;;;;5114886;28;20024;-68
2021/05/24 08:40:44;;;;;;;7.50;2.50;;;;;;;;;;5096467;28;20024;-67
2021/05/24 08:43:10;;;;;;;5.03;2.10;;;;;;;;;;5114673;28;20397;-68
2021/05/24 08:45:39;;;;;;;4.50;2.05;;;;;;;;;;5114730;28;20398;-68
2021/05/24 08:48:06;;;;;;;4.30;2.10;;;;;;;;;;5114645;28;20431;-68
2021/05/24 08:50:33;;;;;;;4.97;2.05;;;;;;;;;;5114611;28;20024;-68
2021/05/24 08:52:59;;;;;;;4.80;2.10;;;;;;;;;;5114568;28;20532;-68
2021/05/24 08:55:25;;;;;;;2.63;2.00;;;;;;;;;;5114410;28;20020;-67
2021/05/24 08:57:51;;;;;;;3.92;1.98;;;;;;;;;;5113913;28;20027;-68
2021/05/24 09:00:18;;;;;;;4.32;2.00;;;;;;;;;;5114371;28;20031;-68
2021/05/24 09:02:48;;;;;;;3.55;2.65;;;;;;;;;;5114300;28;20106;-68
2021/05/24 09:05:15;;;;;;;5.43;2.00;;;;;;;;;;5114448;28;20027;-67
2021/05/24 09:07:47;;;;;;;6.07;2.00;;;;;;;;;;5114253;28;20043;-68
2021/05/24 09:10:14;;;;;;;4.05;1.77;;;;;;;;;;5114220;28;20030;-65
2021/05/24 09:12:41;;;;;;;4.88;1.70;;;;;;;;;;5114028;28;20074;-67
2021/05/24 09:15:10;;;;;;;5.75;2.10;;;;;;;;;;5114410;28;20406;-66
2021/05/24 09:17:53;;;;;;;3.92;2.05;;;;;;;;;;5114038;28;20470;-68
2021/05/24 09:20:19;;;;;;;7.18;3.13;;;;;;;;;;5113891;28;20544;-67
2021/05/24 09:22:45;;;;;;;4.80;2.40;;;;;;;;;;5114004;28;20386;-68
2021/05/24 09:25:12;;;;;;;3.35;2.00;;;;;;;;;;5113601;28;20024;-66
2021/05/24 09:27:38;;;;;;;3.03;2.42;;;;;;;;;;5113922;28;20046;-67
2021/05/24 09:30:06;;;;;;;3.30;2.17;;;;;;;;;;5113656;28;20030;-67
2021/05/24 09:32:33;;;;;;;3.40;1.98;;;;;;;;;;5114092;28;20015;-67
2021/05/24 09:35:05;;;;;;;3.67;1.80;;;;;;;;;;5113605;28;20042;-68
2021/05/24 09:37:32;;;;;;;3.08;1.80;;;;;;;;;;5113766;28;20145;-67
2021/05/24 09:39:59;;;;;;;5.93;2.00;;;;;;;;;;5113506;28;20024;-67
2021/05/24 09:42:25;;;;;;;4.82;1.80;;;;;;;;;;5113596;28;20028;-67
2021/05/24 09:44:53;;;;;;;5.35;1.67;;;;;;;;;;5113801;28;20106;-67
2021/05/24 09:47:39;;;;;;;3.60;1.67;;;;;;;;;;5095804;28;20375;-68
2021/05/24 09:50:08;;;;;;;2.85;1.80;;;;;;;;;;5113694;28;20043;-68
2021/05/24 09:52:35;;;;;;;2.35;1.75;;;;;;;;;;5113664;28;20069;-67
2021/05/24 09:55:13;;;;;;;4.53;2.20;;;;;;;;;;5113218;28;20020;-68
2021/05/24 09:57:50;;;;;;;1.50;1.40;;;;;;;;;;5113470;28;20382;-67
2021/05/24 10:00:19;;;;;;;2.38;1.52;;;;;;;;;;5113349;28;20031;-68
2021/05/24 10:02:46;;;;;;;2.70;1.50;;;;;;;;;;5113579;28;20387;-68
2021/05/24 10:05:12;;;;;;;2.40;1.50;;;;;;;;;;5113488;28;20057;-67
2021/05/24 10:07:38;;;;;;;1.50;1.40;;;;;;;;;;5113094;28;20509;-67
2021/05/24 10:10:04;;;;;;;3.78;1.63;;;;;;;;;;5112125;28;20478;-67
2021/05/24 10:12:31;;;;;;;2.35;1.50;;;;;;;;;;5113065;28;20031;-68
2021/05/24 10:14:59;;;;;;;5.50;1.88;;;;;;;;;;5113201;28;20023;-69
2021/05/24 10:17:26;;;;;;;3.78;1.70;;;;;;;;;;5113053;28;20023;-68
2021/05/24 10:19:52;;;;;;;1.85;1.70;;;;;;;;;;5112988;28;20023;-67
2021/05/24 10:22:18;;;;;;;5.10;2.10;;;;;;;;;;5112838;28;20065;-67
2021/05/24 10:24:44;;;;;;;2.45;1.88;;;;;;;;;;5112849;28;20501;-68
2021/05/24 10:27:11;;;;;;;3.03;1.75;;;;;;;;;;5112863;28;20052;-67
2021/05/24 10:29:37;;;;;;;2.55;2.13;;;;;;;;;;5113025;28;20031;-68
2021/05/24 10:32:07;;;;;;;2.65;1.70;;;;;;;;;;5112913;28;20023;-67
2021/05/24 10:34:38;;;;;;;3.40;1.70;;;;;;;;;;5112823;28;20035;-67
2021/05/24 10:37:07;;;;;;;4.10;1.50;;;;;;;;;;5112731;28;20107;-68
2021/05/24 10:39:47;;;;;;;1.95;1.55;;;;;;;;;;5112838;28;20072;-66
2021/05/24 10:42:14;;;;;;;1.90;1.70;;;;;;;;;;5112978;28;20023;-67
2021/05/24 10:44:47;;;;;;;3.08;2.10;;;;;;;;;;5112598;28;20031;-67
2021/05/24 10:47:20;;;;;;;3.67;1.75;;;;;;;;;;5112772;28;20117;-68
2021/05/24 10:50:04;;;;;;;4.10;1.70;;;;;;;;;;5112899;28;20437;-67
2021/05/24 10:52:31;;;;;;;2.10;1.80;;;;;;;;;;5112596;28;20015;-67
2021/05/24 10:54:57;;;;;;;2.22;1.90;;;;;;;;;;5112653;28;20077;-68
2021/05/24 10:57:23;;;;;;;2.15;1.90;;;;;;;;;;5112658;28;20035;-67
2021/05/24 10:59:50;;;;;;;1.77;1.63;;;;;;;;;;5112604;28;20032;-64
2021/05/24 11:02:27;;;;;;;2.55;1.67;;;;;;;;;;5094256;28;20076;-68
2021/05/24 11:05:16;;;;;;;2.85;1.67;;;;;;;;;;5112600;28;20020;-69
2021/05/24 11:07:47;;;;;;;2.22;1.70;;;;;;;;;;5101724;28;20040;-67
2021/05/24 11:10:13;;;;;;;3.53;1.90;;;;;;;;;;5112531;28;20098;-68
2021/05/24 11:12:39;;;;;;;4.20;1.90;;;;;;;;;;5112460;28;20020;-67
2021/05/24 11:15:10;;;;;;;2.20;1.73;;;;;;;;;;5112454;28;20024;-69
2021/05/24 11:17:56;;;;;;;2.42;1.77;;;;;;;;;;5112724;28;20020;-69
2021/05/24 11:20:28;;;;;;;2.25;2.05;;;;;;;;;;5098727;28;20106;-68
2021/05/24 11:26:11;;;;;;;2.60;1.77;;;;;;;;;;5116135;28;20024;-67
2021/05/24 11:28:38;;;;;;;1.77;1.23;;;;;;;;;;5116248;28;20036;-67
2021/05/24 11:31:11;;;;;;;1.50;1.40;;;;;;;;;;5116163;28;20038;-67
2021/05/24 11:33:38;;;;;;;1.77;1.67;;;;;;;;;;5116148;28;20069;-68
2021/05/24 11:36:06;;;;;;;5.20;2.70;;;;;;;;;;5097605;28;20547;-68
2021/05/24 11:38:32;;;;;;;1.65;1.55;;;;;;;;;;5116405;28;20390;-67
2021/05/24 11:41:08;;;;;;;1.60;1.50;;;;;;;;;;5116045;28;20035;-68
2021/05/24 11:43:34;;;;;;;3.83;1.80;;;;;;;;;;5115928;28;20024;-68
2021/05/24 11:46:05;;;;;;;2.33;1.70;;;;;;;;;;5116026;28;20051;-68
2021/05/24 11:48:34;;;;;;;3.25;1.90;;;;;;;;;;5115939;28;20024;-68
2021/05/24 11:51:03;;;;;;;5.32;1.77;;;;;;;;;;5115793;28;20046;-67
2021/05/24 11:53:29;;;;;;;2.17;1.80;;;;;;;;;;5115743;28;20028;-69
2021/05/24 11:56:05;;;;;;;2.30;1.90;;;;;;;;;;5115771;28;20024;-68
2021/05/24 11:58:31;;;;;;;2.42;2.20;;;;;;;;;;5115731;28;20505;-68
2021/05/24 12:01:04;;;;;;;1.88;1.73;;;;;;;;;;5115612;28;20166;-68
2021/05/24 12:03:30;;;;;;;2.90;1.60;;;;;;;;;;5115606;28;20486;-68
2021/05/24 12:05:57;;;;;;;3.50;1.60;;;;;;;;;;5115403;28;20502;-68
2021/05/24 12:08:24;;;;;;;3.10;2.17;;;;;;;;;;5115346;28;20044;-68
2021/05/24 12:11:00;;;;;;;3.83;1.80;;;;;;;;;;5115379;28;20035;-67
2021/05/24 12:13:26;;;;;;;3.42;1.50;;;;;;;;;;5115464;28;20023;-67
2021/05/24 12:16:01;;;;;;;3.42;2.28;;;;;;;;;;5115342;28;20030;-68
2021/05/24 12:18:29;;;;;;;4.13;2.13;;;;;;;;;;5115185;28;20028;-68
2021/05/24 12:20:56;;;;;;;2.25;1.75;;;;;;;;;;5115176;28;20482;-67
2021/05/24 12:23:23;;;;;;;2.97;1.90;;;;;;;;;;5115388;28;20051;-67
2021/05/24 12:25:49;;;;;;;2.05;1.63;;;;;;;;;;5115166;28;20105;-68
2021/05/24 12:28:16;;;;;;;2.90;1.52;;;;;;;;;;5115135;28;20106;-67
2021/05/24 12:30:44;;;;;;;3.63;1.75;;;;;;;;;;5105826;28;20025;-67
2021/05/24 12:33:12;;;;;;;2.63;1.60;;;;;;;;;;5093422;28;20027;-68
2021/05/24 12:35:39;;;;;;;4.55;1.70;;;;;;;;;;5094403;28;20016;-68
2021/05/24 12:38:20;;;;;;;3.85;1.80;;;;;;;;;;5094613;28;20025;-68
2021/05/24 12:40:50;;;;;;;3.38;1.80;;;;;;;;;;5094428;28;20020;-68
2021/05/24 12:43:16;;;;;;;4.05;1.88;;;;;;;;;;5094463;28;20028;-68
2021/05/24 12:45:42;;;;;;;3.90;1.80;;;;;;;;;;5094378;28;20043;-68
2021/05/24 12:48:12;;;;;;;3.30;1.90;;;;;;;;;;5094204;28;20028;-68
2021/05/24 12:50:38;;;;;;;2.45;1.70;;;;;;;;;;5094158;28;20021;-66
2021/05/24 12:53:09;;;;;;;3.60;1.60;;;;;;;;;;5094223;28;20024;-68
2021/05/24 12:55:35;;;;;;;2.25;1.33;;;;;;;;;;5094219;28;20020;-68
2021/05/24 12:58:08;;;;;;;3.03;1.58;;;;;;;;;;5094055;28;20494;-68
2021/05/24 13:00:40;;;;;;;2.53;1.90;;;;;;;;;;5094135;28;20034;-68
2021/05/24 13:03:06;;;;;;;2.17;1.50;;;;;;;;;;5093978;28;20024;-68
2021/05/24 13:05:32;;;;;;;1.60;1.50;;;;;;;;;;5093989;28;20073;-67
2021/05/24 13:07:58;;;;;;;1.70;1.48;;;;;;;;;;5093741;28;20093;-68
2021/05/24 13:10:30;;;;;;;1.60;1.50;;;;;;;;;;5093778;28;20081;-69
2021/05/24 13:13:00;;;;;;;1.60;1.50;;;;;;;;;;5093903;28;20038;-68
2021/05/24 13:15:35;;;;;;;1.60;1.50;;;;;;;;;;5093868;28;20459;-67
2021/05/24 13:18:09;;;;;;;2.90;2.00;;;;;;;;;;5093641;28;20016;-69
2021/05/24 13:21:03;;;;;;;3.00;2.17;;;;;;;;;;5093802;28;20026;-70
2021/05/24 13:31:13;;;;;;;1.95;1.60;;;;;;;;;;5093604;28;20025;-70
2021/05/24 13:33:40;;;;;;;2.40;1.90;;;;;;;;;;5093454;28;20103;-70
2021/05/24 13:36:15;;;;;;;5.78;4.57;;;;;;;;;;5093346;28;20459;-70
2021/05/24 13:38:42;;;;;;;5.13;3.47;;;;;;;;;;5093313;28;20026;-71
2021/05/24 13:41:08;;;;;;;5.53;3.33;;;;;;;;;;5093182;28;20095;-69
2021/05/24 13:43:34;;;;;;;2.28;1.75;;;;;;;;;;5092909;28;20118;-70
2021/05/24 13:46:00;;;;;;;5.80;2.53;;;;;;;;;;5092852;28;20019;-69
2021/05/24 13:48:26;;;;;;;6.30;1.95;;;;;;;;;;5093167;28;20024;-69
2021/05/24 13:50:52;;;;;;;4.68;2.15;;;;;;;;;;5092983;28;20052;-68
2021/05/24 13:53:18;;;;;;;2.78;1.45;;;;;;;;;;5093005;28;20475;-68
2021/05/24 13:55:44;;;;;;;1.70;1.60;;;;;;;;;;5093013;28;20032;-68
2021/05/24 13:58:10;;;;;;;1.83;1.70;;;;;;;;;;5093082;28;20023;-68
2021/05/24 14:00:36;;;;;;;7.22;4.18;;;;;;;;;;5092796;28;20032;-69
2021/05/24 14:03:03;;;;;;;6.53;4.40;;;;;;;;;;5092884;28;20031;-69
2021/05/24 14:05:29;;;;;;;3.53;2.50;;;;;;;;;;5092991;28;20602;-70
2021/05/24 14:07:55;;;;;;;3.30;2.67;;;;;;;;;;5092677;28;20084;-71
2021/05/24 14:10:21;;;;;;;4.07;2.58;;;;;;;;;;5092770;28;20027;-71
2021/05/24 14:12:48;;;;;;;3.30;1.90;;;;;;;;;;5092813;28;20020;-72
2021/05/24 14:15:15;;;;;;;3.05;2.00;;;;;;;;;;5092499;28;20442;-71
2021/05/24 14:17:42;;;;;;;4.30;2.22;;;;;;;;;;5092977;28;20035;-71
2021/05/24 14:20:09;;;;;;;5.22;2.90;;;;;;;;;;5092602;28;20016;-72
2021/05/24 14:22:35;;;;;;;7.05;4.93;;;;;;;;;;5092725;28;20024;-71
2021/05/24 14:25:01;;;;;;;7.25;4.20;;;;;;;;;;5108453;27;20027;-69
2021/05/24 14:27:27;;;;;;;5.05;3.83;;;;;;;;;;5133419;27;20022;-70
2021/05/24 14:29:54;;;;;;;5.72;3.75;;;;;;;;;;5133328;27;20106;-69
2021/05/24 14:32:20;;;;;;;8.88;5.00;;;;;;;;;;5133489;27;20027;-67
2021/05/24 14:34:46;;;;;;;8.00;4.65;;;;;;;;;;5133473;28;20416;-68
2021/05/24 14:37:12;;;;;;;2.58;2.08;;;;;;;;;;5133290;28;20015;-70
2021/05/24 14:39:39;;;;;;;5.38;4.18;;;;;;;;;;5132806;28;20034;-69
2021/05/24 14:42:05;;;;;;;2.92;1.60;;;;;;;;;;5133336;28;20054;-71
2021/05/24 14:44:31;;;;;;;3.58;2.33;;;;;;;;;;5133322;28;20068;-70
2021/05/24 14:46:57;;;;;;;3.58;2.90;;;;;;;;;;5133278;28;20081;-71
2021/05/24 14:49:23;;;;;;;3.00;2.20;;;;;;;;;;5133177;28;20611;-69
2021/05/24 14:51:52;;;;;;;6.22;3.70;;;;;;;;;;5133380;28;20455;-71
2021/05/24 14:54:18;;;;;;;3.38;2.20;;;;;;;;;;5133126;28;20019;-68